createdAt,value
2023-04-10T00:03:12.807Z,102408.94
2023-04-10T00:08:19.081Z,102408.50
2023-04-10T00:13:25.169Z,102412.66
2023-04-10T00:18:26.824Z,102403.34
2023-04-10T00:23:34.738Z,102397.44
2023-04-10T00:28:38.158Z,102394.16
2023-04-10T00:33:44.358Z,102383.38
2023-04-10T00:38:48.753Z,102373.06
2023-04-10T00:43:56.931Z,102361.75
2023-04-10T00:48:58.681Z,102354.34
2023-04-10T00:54:03.548Z,102354.22
2023-04-10T00:59:07.138Z,102339.19
2023-04-10T01:04:11.778Z,102347.19
2023-04-10T01:09:32.095Z,102336.81
2023-04-10T01:15:28.278Z,102331.84
2023-04-10T01:20:36.161Z,102340.47
2023-04-10T01:25:44.995Z,102330.81
2023-04-10T01:30:51.377Z,102328.38
2023-04-10T01:35:56.493Z,102316.03
2023-04-10T01:41:02.070Z,102312.38
2023-04-10T01:46:05.384Z,102319.53
2023-04-10T01:51:10.396Z,102309.84
2023-04-10T01:56:12.823Z,102300.56
2023-04-10T02:01:29.006Z,102292.25
2023-04-10T02:06:46.096Z,102301.00
2023-04-10T02:12:02.528Z,102285.19
2023-04-10T02:17:07.163Z,102275.66
2023-04-10T02:22:12.054Z,102266.88
2023-04-10T02:27:13.736Z,102265.69
2023-04-10T02:32:17.362Z,102254.09
2023-04-10T02:37:23.726Z,102250.47
2023-04-10T02:42:28.132Z,102250.00
2023-04-10T02:47:33.554Z,102253.78
2023-04-10T02:52:38.174Z,102244.56
2023-04-10T02:57:40.994Z,102240.09
2023-04-10T03:02:46.094Z,102243.56
2023-04-10T03:07:53.989Z,102242.13
2023-04-10T03:12:59.512Z,102234.84
2023-04-10T03:18:01.324Z,102231.25
2023-04-10T03:23:04.766Z,102223.75
2023-04-10T03:28:06.535Z,102216.97
2023-04-10T03:33:08.472Z,102213.59
2023-04-10T03:38:12.755Z,102211.09
2023-04-10T03:43:14.529Z,102206.13
2023-04-10T03:48:20.891Z,102208.31
2023-04-10T03:53:23.374Z,102205.91
2023-04-10T03:58:29.658Z,102203.63
2023-04-10T04:03:31.938Z,102209.28
2023-04-10T04:08:36.334Z,102211.84
2023-04-10T04:13:49.326Z,102206.63
2023-04-10T04:19:09.467Z,102205.56
2023-04-10T04:24:20.392Z,102214.63
2023-04-10T04:29:36.100Z,102207.75
2023-04-10T04:35:03.682Z,102201.84
2023-04-10T04:40:26.948Z,102204.50
2023-04-10T04:45:38.235Z,102197.59
2023-04-10T04:50:43.601Z,102189.16
2023-04-10T04:55:56.906Z,102183.00
2023-04-10T05:01:27.898Z,102174.53
2023-04-10T05:06:45.628Z,102163.78
2023-04-10T05:12:06.036Z,102153.38
2023-04-10T05:17:26.654Z,102151.91
2023-04-10T05:22:40.592Z,102152.13
2023-04-10T05:27:51.168Z,102147.44
2023-04-10T05:33:15.090Z,102155.38
2023-04-10T05:38:35.805Z,102147.69
2023-04-10T05:43:48.513Z,102146.53
2023-04-10T05:49:04.437Z,102152.47
2023-04-10T05:54:38.006Z,102140.31
2023-04-10T06:00:02.101Z,102128.38
2023-04-10T06:05:16.030Z,102125.94
2023-04-10T06:10:21.211Z,102140.41
2023-04-10T06:15:29.474Z,102139.88
2023-04-10T06:20:32.332Z,102136.19
2023-04-10T06:25:36.520Z,102135.38
2023-04-10T06:30:43.505Z,102130.78
2023-04-10T06:35:45.603Z,102125.38
2023-04-10T06:40:47.814Z,102121.34
2023-04-10T06:45:49.609Z,102118.84
2023-04-10T06:50:51.278Z,102122.25
2023-04-10T06:55:55.466Z,102121.84
2023-04-10T07:00:57.952Z,102115.66
2023-04-10T07:06:03.463Z,102109.78
2023-04-10T07:11:07.569Z,102105.03
2023-04-10T07:16:12.502Z,102104.34
2023-04-10T07:21:14.273Z,102092.31
2023-04-10T07:26:16.501Z,102080.75
2023-04-10T07:31:21.060Z,102076.41
2023-04-10T07:36:27.043Z,102073.16
2023-04-10T07:41:28.816Z,102070.25
2023-04-10T07:46:30.514Z,102063.28
2023-04-10T07:51:34.626Z,102058.16
2023-04-10T07:56:36.391Z,102046.44
2023-04-10T08:01:38.128Z,102043.19
2023-04-10T08:06:39.869Z,102041.28
2023-04-10T08:11:41.579Z,102024.94
2023-04-10T08:16:43.304Z,102030.66
2023-04-10T08:21:45.051Z,102014.25
2023-04-10T08:26:49.669Z,102005.59
2023-04-10T08:31:54.553Z,101991.22
2023-04-10T08:36:59.625Z,101986.25
2023-04-10T08:42:02.498Z,101975.53
2023-04-10T08:47:05.974Z,101960.94
2023-04-10T08:52:14.778Z,101941.28
2023-04-10T08:57:20.904Z,101928.34
2023-04-10T09:02:25.340Z,101929.94
2023-04-10T09:07:29.756Z,101905.31
2023-04-10T09:12:43.621Z,101917.25
2023-04-10T09:17:55.616Z,101907.38
2023-04-10T09:22:59.713Z,101891.69
2023-04-10T09:28:09.730Z,101877.34
2023-04-10T09:33:27.910Z,101853.63
2023-04-10T09:38:36.741Z,101850.53
2023-04-10T09:43:39.136Z,101834.06
2023-04-10T09:48:55.001Z,101835.69
2023-04-10T09:54:01.393Z,101825.03
2023-04-10T09:59:04.858Z,101811.94
2023-04-10T10:04:08.112Z,101793.50
2023-04-10T10:09:09.921Z,101804.50
2023-04-10T10:14:15.668Z,101794.34
2023-04-10T10:19:31.538Z,101780.63
2023-04-10T10:24:36.913Z,101776.25
2023-04-10T10:29:41.172Z,101767.31
2023-04-10T10:34:43.205Z,101749.22
2023-04-10T10:39:57.175Z,101740.22
2023-04-10T10:45:10.851Z,101721.31
2023-04-10T10:50:14.805Z,101730.28
2023-04-10T10:55:22.434Z,101733.59
2023-04-10T11:00:26.026Z,101707.81
2023-04-10T11:05:48.793Z,101704.69
2023-04-10T11:11:03.658Z,101685.34
2023-04-10T11:16:07.193Z,101682.00
2023-04-10T11:21:10.715Z,101676.78
2023-04-10T11:26:12.514Z,101657.47
2023-04-10T11:31:22.080Z,101661.19
2023-04-10T11:36:24.365Z,101634.78
2023-04-10T11:41:34.277Z,101617.84
2023-04-10T11:46:40.575Z,101622.41
2023-04-10T11:51:46.384Z,101614.78
2023-04-10T11:57:06.338Z,101608.00
2023-04-10T12:02:15.261Z,101597.81
2023-04-10T12:07:17.245Z,101587.75
2023-04-10T12:12:20.589Z,101570.06
2023-04-10T12:17:27.266Z,101567.22
2023-04-10T12:22:29.058Z,101544.78
2023-04-10T12:27:33.185Z,101523.63
2023-04-10T12:32:37.170Z,101532.63
2023-04-10T12:37:52.470Z,101526.94
2023-04-10T12:42:54.253Z,101502.97
2023-04-10T12:47:56.426Z,101497.00
2023-04-10T12:53:09.426Z,101495.56
2023-04-10T12:58:20.649Z,101489.75
2023-04-10T13:03:27.663Z,101472.78
2023-04-10T13:08:32.575Z,101464.03
2023-04-10T13:13:36.878Z,101447.81
2023-04-10T13:18:38.949Z,101439.06
2023-04-10T13:23:47.010Z,101432.81
2023-04-10T13:28:51.042Z,101424.13
2023-04-10T13:33:55.944Z,101401.03
2023-04-10T13:38:59.867Z,101399.22
2023-04-10T13:44:04.260Z,101390.72
2023-04-10T13:49:06.124Z,101386.38
2023-04-10T13:54:12.313Z,101382.53
2023-04-10T13:59:16.730Z,101352.91
2023-04-10T14:04:18.997Z,101335.75
2023-04-10T14:09:20.732Z,101326.19
2023-04-10T14:14:25.293Z,101303.34
2023-04-10T14:19:29.424Z,101300.63
2023-04-10T14:24:31.126Z,101291.81
2023-04-10T14:29:40.573Z,101297.53
2023-04-10T14:34:46.910Z,101280.34
2023-04-10T14:39:48.724Z,101257.88
2023-04-10T14:44:53.419Z,101260.84
2023-04-10T14:50:00.182Z,101246.56
2023-04-10T14:55:02.215Z,101232.75
2023-04-10T15:00:04.673Z,101230.31
2023-04-10T15:05:07.027Z,101225.34
2023-04-10T15:10:10.648Z,101226.25
2023-04-10T15:15:17.654Z,101205.47
2023-04-10T15:20:31.443Z,101197.84
2023-04-10T15:25:33.995Z,101194.06
2023-04-10T15:30:35.932Z,101180.09
2023-04-10T15:35:37.789Z,101153.34
2023-04-10T15:40:39.664Z,101131.81
2023-04-10T15:45:41.598Z,101128.34
2023-04-10T15:50:43.493Z,101100.91
2023-04-10T15:55:45.209Z,101101.97
2023-04-10T16:00:47.345Z,101118.25
2023-04-10T16:05:53.581Z,101104.38
2023-04-10T16:10:56.167Z,101101.72
2023-04-10T16:15:57.970Z,101082.78
2023-04-10T16:21:03.075Z,101077.06
2023-04-10T16:26:05.332Z,101065.47
2023-04-10T16:31:07.326Z,101042.25
2023-04-10T16:36:16.704Z,101045.44
2023-04-10T16:41:20.993Z,101024.75
2023-04-10T16:46:22.926Z,101037.88
2023-04-10T16:51:27.555Z,101032.47
2023-04-10T16:56:31.624Z,101033.38
2023-04-10T17:01:39.596Z,101050.25
2023-04-10T17:06:41.384Z,101037.72
2023-04-10T17:11:47.663Z,101056.06
2023-04-10T17:16:49.899Z,101045.94
2023-04-10T17:21:56.430Z,101037.03
2023-04-10T17:27:02.989Z,100985.44
2023-04-10T17:32:06.328Z,100976.50
2023-04-10T17:37:10.564Z,100941.69
2023-04-10T17:42:14.646Z,100916.41
2023-04-10T17:47:18.877Z,100902.34
2023-04-10T17:52:22.994Z,100896.75
2023-04-10T17:57:25.310Z,100913.50
2023-04-10T18:02:31.989Z,100935.47
2023-04-10T18:07:36.104Z,100912.28
2023-04-10T18:12:40.553Z,100911.63
2023-04-10T18:17:42.312Z,100933.41
2023-04-10T18:22:44.416Z,100915.38
2023-04-10T18:28:04.586Z,100930.94
2023-04-10T18:33:19.458Z,100969.50
2023-04-10T18:38:26.144Z,100946.44
2023-04-10T18:43:30.438Z,100925.72
2023-04-10T18:48:34.683Z,100935.19
2023-04-10T18:53:41.363Z,100919.59
2023-04-10T18:58:43.038Z,100916.84
2023-04-10T19:03:52.402Z,100919.41
2023-04-10T19:08:55.907Z,100938.91
2023-04-10T19:14:00.877Z,100927.50
2023-04-10T19:19:02.736Z,100916.16
2023-04-10T19:24:04.700Z,100912.19
2023-04-10T19:29:08.816Z,100916.13
2023-04-10T19:34:13.634Z,100893.22
2023-04-10T19:39:18.261Z,100877.94
2023-04-10T19:44:20.266Z,100873.88
2023-04-10T19:49:22.013Z,100854.69
2023-04-10T19:54:26.249Z,100837.00
2023-04-10T19:59:28.792Z,100844.28
2023-04-10T20:04:33.136Z,100849.88
2023-04-10T20:09:34.973Z,100839.13
2023-04-10T20:14:38.395Z,100824.44
2023-04-10T20:19:40.553Z,100821.09
2023-04-10T20:24:42.275Z,100795.84
2023-04-10T20:29:44.039Z,100786.72
2023-04-10T20:34:48.875Z,100766.53
2023-04-10T20:39:53.608Z,100775.28
2023-04-10T20:44:55.485Z,100765.31
2023-04-10T20:49:57.205Z,100769.84
2023-04-10T20:54:58.958Z,100754.63
2023-04-10T21:00:03.290Z,100737.56
2023-04-10T21:05:07.571Z,100729.53
2023-04-10T21:10:09.369Z,100710.19
2023-04-10T21:15:15.775Z,100686.94
2023-04-10T21:20:22.195Z,100688.78
2023-04-10T21:25:23.933Z,100697.63
2023-04-10T21:30:25.664Z,100694.59
2023-04-10T21:35:29.780Z,100676.72
2023-04-10T21:40:34.363Z,100676.31
2023-04-10T21:45:37.472Z,100689.34
2023-04-10T21:50:39.781Z,100686.28
2023-04-10T21:55:43.727Z,100673.75
2023-04-10T22:00:47.261Z,100675.97
2023-04-10T22:05:54.527Z,100647.13
2023-04-10T22:10:56.271Z,100662.88
2023-04-10T22:16:02.211Z,100658.53
2023-04-10T22:21:11.314Z,100648.84
2023-04-10T22:26:13.072Z,100658.34
2023-04-10T22:31:18.246Z,100652.00
2023-04-10T22:36:22.531Z,100640.91
2023-04-10T22:41:29.562Z,100648.75
2023-04-10T22:46:33.551Z,100621.63
2023-04-10T22:51:35.314Z,100635.00
2023-04-10T22:56:39.869Z,100622.00
2023-04-10T23:01:41.675Z,100623.69
2023-04-10T23:06:43.443Z,100629.66
2023-04-10T23:11:46.140Z,100620.38
2023-04-10T23:16:52.577Z,100605.72
2023-04-10T23:21:59.089Z,100601.00
2023-04-10T23:27:00.774Z,100583.66
2023-04-10T23:32:04.949Z,100578.41
2023-04-10T23:37:06.622Z,100568.03
2023-04-10T23:42:08.277Z,100566.84
2023-04-10T23:47:12.517Z,100558.81
2023-04-10T23:52:14.166Z,100558.16
2023-04-10T23:57:15.848Z,100557.44
